Timeline UpdatesTrip UpdatesNews PostsPvt Posts♥♥Travel TipsAdmin PostsConv PostsFollowed PostsChat RequestsBlog PostsPNR Posts

Disclaimer
Search
 
 
Thu Oct 23, 2014 03:16:15 ISTHomeTrainsΣChainsAtlasPNRForumGalleryNewsFAQTripsMembersLoginFeedback
No Recent News for this Train
Other Trains in the News **new
Latest...
Short Originate from Gaya from 15/10/14-20/10/14 #1245502
Wed Oct 15, 2014 (09:33PM)
⇐ Return Journey: Train# 53521

53522/Varanasi-Asansol Passenger (UnReserved)

Time-Table HAS CHANGED.
Oct 15 (9:33PM)
Change Departure Station:
Change Arrival Station:
Post a Train Travel TipPost a Train Travel Tip **new
Post a Comment/Question/Picture/VideoPost a Comment/Question/Picture/Video
Pantry/Catering
✕ NO Pantry Car
✕ NO Catering
RSA - Rake Sharing
Rake/Coach Composition
Loco
WAG 7 LDH
News    PNR    Forum    Time-Table    Availability    Fare Chart    Map    Arr/Dep History    Trips    Gallery    ΣChains    X/O    Timeline    
Travel Time: 16h 35m    80 halts    Distance: 480 km    Avg Speed: 28 km/hr
Type: Passenger
Zone: ER/Eastern
Departs @ 04:25 (Avg 1m late)
Platform# 1
SMTWTFS
Varanasi Junction/BSB 
Arrives @ 21:00 (Avg 1h 17m late)
Platform# ???
SMTWTFS
Asansol Junction/ASN 

80 halts. 86 intermediate Stations between Varanasi Junction and Asansol Junction

Show ALL intermediate Stations  Show Old Time-Table

#TrkCodeStation NameX/OArrivesAvgDepartsAvgHaltPFDay#KmSpeedElevZoneAddress
1%==%BSBVaranasi Junction (9)»  -04:25+1110.02782mNRVaranasi 221002, Uttar Pradesh
2/==/KEIKashi (3)  04:37+504:38+61m--15.32485mNRVaranasi, Uttar Pradesh
3/==/VYNVyasnagar  04:51+704:52+71m--110.61281mNRNational Highway 2, Uttar Pradesh
4/==/MGSMughal Sarai Junction (8)X  05:20+205:30+410m--116.34883mECRDistt: Chandauli Pin 232101, Uttar Pradesh
5/==/GAQGanj Khawaja  05:40 05:41+3505:42+432 1m--125.15779mECRChandauli Mjhwr, Uttar Pradesh
6/==/CDMRChandauli MajhwarX  05:50 05:51+4605:52+542 1m--133.77279mECRNational Highway 2, Uttar Pradesh
7/==/SYJSaidrajaX  05:59+5506:01+592m--142.16280mECRSaiyedraja, Uttar Pradesh
8/==/KMSKaramnasa  06:08 06:09+5906:10+592 1m--150.35378mECRNational Highway 2, Uttar Pradesh
9/==/DCXDhanaichhaXO  06:16 06:17+5906:18+1:002 1m--156.53275mECRNational Highway 2, Bihar
10/==/DGODurgautiX  06:25 06:28+1:0006:27 06:29+1:122 1m--161.92778mECRDistt Kaimur, Bihar
11/==/BBUBhabua Road (4)O  06:49+1:0106:51 06:50+1:062 1m--170.81680mECR06187-222222, Bihar
12/==/MTGEMuthaniX  06:58 07:10+1:0107:00 07:11+1:062 1m--176.35383mECRNational Highway 2, Bihar
13/==/PSEPusauliX  07:08 07:20+1:0707:10 07:21+1:082 1m--184.26086mECRDistt: Rohtas, Bihar
14/==/KTQKudra (2)XO  07:22 07:30+1:0607:24 07:31+1:122 1m--193.25292mECRKudra, Bihar
15/==/KVDKhurmabad RoadX  07:31 07:39+1:1207:33 07:40+1:142 1m--1100.14193mECRKhurmabad, Bihar
16/==/SSGShiu Sagar RoadXO  07:40 07:47+1:1307:42 07:48+1:132 1m--1104.94299mECRShiu Sagar Rd, Bihar
17/==/KMGEKumahuXO  07:50 07:56+1:1207:52 07:57+1:132 1m--1110.59101mECRKamahu, Bihar
18/==/SSMSasaram Junction (4)  08:05 08:48+4808:07 08:49+542 1m31118.433111mECR06184-222051, Bihar
19/==/KWDKarwandia  08:13 09:01+1:0008:15 09:02+1:032 1m--1124.950112mECRKarwandiya, Bihar
20/==/PHEPahaleja Halt  08:22 09:10+1:0408:24 09:11+1:052 1m--1131.634112mECRPahaleja, Bihar
21/==/DOSDehri On Sone (6)  08:35 09:19+1:1308:40 09:24+1:155m--1136.149114mECRRohtas(06184-253154), Bihar
22/==/SEBSon Nagar Junction (4)X  08:48 09:31+1:1108:50 09:32+1:162 1m21141.858110mECRBarun, Bihar
23/==/CPBHChiraila  08:57 09:38+1:1808:59 09:39+1:182 1m21147.643104mECRBarun, Bihar
24/==/AUBRAnugraha Narayan Road (4)  09:06 09:46+1:1109:08 09:47+1:122 1m31152.7107104mECR06186-285271, Bihar
25/==/PESPhesar  09:20 09:52+1:2709:22 09:53+1:272 1m21161.619104mECRpheshar, Bihar
26/==/BHKHBaghoi Kusa  09:29 10:07+1:2309:31 10:08+1:232 1m--1166.14998mECRbel Rd, Bihar
27/==/JHNJakhim  10:17 10:16+1:0210:19 10:17+1:022 1m--1172.73893mECRbel Rd, Bihar
28/==/DORDDeo Road  10:25 10:23+1:0210:27 10:24+1:022 1m--1176.453102mECRMaluk Bigha, Bihar
29/==/RFJRafiGanj (4)X  10:45 10:32+2910:47 10:33+292 1m--1183.526102mECRRafiganj, Bihar
30/==/IMGEIsmailpur  10:55 10:54+5610:57 10:55+572 1m--1192.852114mECRState Highway 69, Bihar
31/==/GRRUGuraru  11:04 11:03+5911:06 11:04+1:022 1m21199.645114mECRGuraru, Bihar
32/==/PRYParaiyaO  11:13 11:12+1:0111:15 11:13+1:012 1m--1205.627111mECRparaiya station Rd, Bihar
33/==/KSTAKastha  11:28 11:29+5511:30+1:002 1m--1212.736113mECRGaya, Bihar
34/==/GAYAGaya Junction (9)  11:44+5511:54+5610m21221.117117mECR0631-2220283, Bihar
35/==/MPOManpur Junction (4)  12:13+1:0812:15+1:262m--1226.462113mECRGaya, Bihar
36/==/BNFBandhuaX  12:17 12:22+1:4812:27 12:24+1:4810 2m--1233.646124mECRState Highway 70, Bihar
37/==/TKNTankuppa  12:34+1:4912:36+1:492m--1241.252127mECRState Highway 70, Bihar
38/==/BNSLBansinala Halt  12:43+1:4912:44+1:491m--1247.353135mECRBansinala, Bihar
39/==/PRPPaharpurX  12:51+1:4812:52+1:481m--1253.554150mECRGaya, Bihar
40/==/GAPGurpa (4)  13:05+1:4613:06+1:471m--1265.229192mECRLodhwe, Bihar
41/==/YGMYadugram Block Hut  13:13+3:0813:14+3:081m--1268.536210mECRYadugram Block Hut, Jharkhand
42/==/BSCPBaskatwa B. H. new halt!!  13:22+2:1113:23+2:121m--1273.317273mECRMurli, Bihar
43/==/NGYNath Ganj  13:28+2:1413:29+2:151m--1274.746284mECRMurli, Bihar
44/==/DLWDilwa (2)X  13:37+2:1713:38+2:191m--1280.930346mECRNational Highway 31, Bihar
45/==/LBZLalbag Block HutX  13:47+1:1613:48+1:161m--1285.426389mECRState Highway 70, Bihar
46/==/GJDGujhandi (4)X  13:53+2:1913:54+2:211m--1287.654386mECRNational Highway 31, Jharkhand
47/==/KQRKoderma Junction (7)  14:06 14:05+1:5214:07+1:521 2m--1297.528399mECR06534-222410 Koderma, Jharkhand
48/==/LRBLarabad  14:17+2:2014:18+2:201m--1302.139393mECRJhumri Telaiya, Jharkhand
49/==/HREHirodih (4)  14:25+2:1914:26+2:191m--1306.752374mECRJhumri Telaiya, Jharkhand
50/==/SMNDSarmatanr (4)  14:35+2:1714:36+2:171m--1314.534351mECRKoderma, Jharkhand
51/==/YDDYadudih (2)  14:43+2:1714:44+2:181m--1318.455352mECRNational Highway 2, Jharkhand
52/==/PSBParsabad (4)  14:50+2:1814:51+2:191m--1323.965346mECRNational Highway 2, Jharkhand
53/==/DSMEDasara (2)X  14:57+2:1814:58+2:181m--1330.449342mECRSariya - Parsiya Road, Jharkhand
54/==/CBHChaube (4)O  15:04+2:1815:06+2:212m--1335.312325mECRParsabad, Jharkhand
55/==/KSHRKeshwari  15:27 15:31+2:0315:28 15:32+2:041m--1340.257313mECRMandramo, Jharkhand
56/==/HZDHazaribagh Road (4)  15:34 15:38+2:0515:35 15:39+2:081m--1345.852330mECRHazaribagh, Jharkhand
57/==/GRBHGarea Bihar new halt!!  15:47+2:0415:48+2:051m--1352.817315mECRSariya - Parsiya Rd, Jharkhand
58/==/CCKChichaki (4)  15:50 15:55+2:0915:51 15:56+2:101m--1354.819308mECRNational Highway 2, Jharkhand
59|--|KRMBKarmabad new halt!!  16:00+2:2316:02+2:222m--1356.08323m???Koyridih, Jharkhand
60/==/CDBChaudhribandh (4)XO  16:10+2:0616:12+2:052m--1357.09337mECRMaipatoli, Jharkhand
61/==/CEMEChegroXO  16:42+1:4116:43+1:411m--1361.343333mECRBeko, Jharkhand
62/==/PNMEParasnath (5)  17:03 17:01+1:0617:08 17:03+1:055 2m--1374.338282mECRGiridih 06532-233419, Jharkhand
63/==/NMGNimiaghat (4)  17:15+1:2417:16+1:241m--1381.956268mECRNational Highway 2, Jharkhand
64/==/BLMEBholldih (2)X  17:22+1:2317:23+1:231m--1387.513241mECRGomoh, Jharkhand
65/==/GMONetaji SC Bose Gomoh Junction (6)X  17:45+1:1217:55+1:1010m--1392.452239mECRGomoh, Jharkhand
66/==/MRQMatari (3)  18:06+5518:07+561m--1401.853246mECRDhanbad, Jharkhand
67/==/NPJENichitpur (2)  18:13+5818:14+581m--1407.150224mECRKatras, Jharkhand
68/==/TETTetulmari (2)O  18:21+1:0118:22+1:021m--1413.032225mECRTetulmari, Jharkhand
69/==/BHNBhuli (2)  18:32+1:0218:33+1:021m--1418.37230mECRKusunda, Jharkhand
70/==/DHNDhanbad Junction (9)X  19:05+4519:15+4510m--1422.145235mECR2319801. Div. HQ ECR, Jharkhand
71/==/DOKMDokra Halt (2)  19:22+4019:23+401m--1427.438211mECRDokra, Jharkhand
72/==/PKAPradhankhunta Junction (3)X  19:29+4019:30+401m--1431.246202mECRDhanbad, Jharkhand
73/==/CAMChhota Ambana (3)X  19:38+4219:39+421m--1437.490200mERDhanbad, Jharkhand
74/==/KAOKalubathan (2)  19:45+4619:46+461m--1446.451195mERDhanbad, Jharkhand
75/==/TNWThapar Nagar (2)X  19:51+4619:52+461m--1450.753144mERDhanbad, Jharkhand
76/==/MMUMugma (3)  19:58+4619:59+461m--1456.056135mERNational Highway 2, Jharkhand
77/==/KMMEKumardubi (2)X  20:04+2:3520:05+2:351m--1460.638135mERDhanbad - 828203(06540-222077), Jharkhand
78/==/BRRBarakar (2)O  20:09+4720:10+471m--1463.149129mERDist. Bardhaman, West Bengal
79/==/ULTKulti (3)X  20:14+4920:15+491m--1466.412148mERdist - bardhaman, West Bengal
80/==/STNSitarampur Junction (5)X  20:40+1820:41+201m21471.637139mERG T Rd Before Asansol, West Bengal
81/==/BCQBarachak Junction (4)  20:47+4020:48+401m--1475.325127mERdist - bardhaman, West Bengal
82/==/ASNAsansol Junction (7)•  21:00+1:17---1480.3-113mERDist - Bardhaman, West Bengal
Scroll to Top
Scroll to Bottom